KIN weather

Norman Manley International Airport
Kingston, Kingston, Jamaica

Public forecast

Using degrees Celsius for public forecast. Weather courtesy of forecast.io.

METAR (pilot weather report)

Retrieved 2019/05/19 16:00 UTC (34 minutes ago):

MKJP 191600Z 14015KT 9999 FEW022 30/22 Q1013

TAF (pilot weather forecast)

Retrieved 2019/05/19 12:23 UTC (4 hours ago):

TAF MKJP 191115Z 1912/2012 35005KT 9999 FEW022 SCT032 BECMG 1914/1916 15020KT SCT020 FEW022CB PROB30 TEMPO 1919/1923 SHRA SCT018 SCT020CB BECMG 2001/2003 35007KT FEW022 FEW024CB SCT032